Time;durP1;ratioP1;P1;durP2;ratioP2;P2;SDS_P1;SDS_P2;PMS_P1;PMS_P2;Temp;Humidity;BMP_temperature;BMP_pressure;BME280_temperature;BME280_humidity;BME280_pressure;Samples;Min_cycle;Max_cycle;Signal;HPM_P1;HPM_P2
2021/08/03 00:01:04;;;;;;;3.47;2.00;;;23.80;54.00;;;;;;5027831;28;20479;-46
2021/08/03 00:03:35;;;;;;;1.70;1.23;;;23.90;53.80;;;;;;5022927;28;20225;-46
2021/08/03 00:06:08;;;;;;;1.40;1.30;;;23.80;54.10;;;;;;5030975;28;20503;-47
2021/08/03 00:08:35;;;;;;;1.00;1.00;;;23.90;53.90;;;;;;5029735;28;20444;-48
2021/08/03 00:11:06;;;;;;;1.40;1.10;;;23.80;53.90;;;;;;5026236;28;20432;-49
2021/08/03 00:13:33;;;;;;;1.50;1.40;;;23.80;53.80;;;;;;5026805;28;20444;-47
2021/08/03 00:16:01;;;;;;;2.40;1.63;;;23.70;54.10;;;;;;5029343;28;20440;-50
2021/08/03 00:18:30;;;;;;;1.13;1.03;;;23.80;53.90;;;;;;5026286;28;20472;-45
2021/08/03 00:20:57;;;;;;;3.40;1.17;;;23.80;54.00;;;;;;5027740;28;20795;-46
2021/08/03 00:23:23;;;;;;;1.63;1.53;;;23.80;54.10;;;;;;5028369;28;20579;-46
2021/08/03 00:25:51;;;;;;;1.77;1.67;;;23.90;53.70;;;;;;5028162;28;20531;-48
2021/08/03 00:28:17;;;;;;;1.30;1.20;;;23.80;53.90;;;;;;5029794;28;20571;-46
2021/08/03 00:30:43;;;;;;;1.50;1.40;;;23.80;53.70;;;;;;5024329;28;20439;-48
2021/08/03 00:33:11;;;;;;;1.20;1.20;;;23.70;53.90;;;;;;5026835;28;20225;-47
2021/08/03 00:35:36;;;;;;;1.60;1.50;;;23.70;54.10;;;;;;5029225;28;20777;-47
2021/08/03 00:38:02;;;;;;;1.57;1.40;;;23.70;54.10;;;;;;5027290;28;20443;-49
2021/08/03 00:40:30;;;;;;;1.27;1.27;;;23.70;53.90;;;;;;5025192;28;21876;-48
2021/08/03 00:42:55;;;;;;;3.67;1.60;;;23.70;54.10;;;;;;5029653;28;20237;-45
2021/08/03 00:45:21;;;;;;;1.67;1.40;;;23.70;54.10;;;;;;5028149;28;20990;-47
2021/08/03 00:47:47;;;;;;;1.60;1.50;;;23.70;53.90;;;;;;5028673;28;20197;-45
2021/08/03 00:50:13;;;;;;;1.50;1.40;;;23.70;54.00;;;;;;5025132;28;20939;-46
2021/08/03 00:52:41;;;;;;;1.30;1.00;;;23.70;53.90;;;;;;5024322;28;20444;-45
2021/08/03 00:55:08;;;;;;;2.30;1.30;;;23.60;54.00;;;;;;5026459;28;20448;-46
2021/08/03 00:57:35;;;;;;;3.93;1.77;;;23.60;54.10;;;;;;5027012;28;20443;-47
2021/08/03 01:00:00;;;;;;;1.60;1.50;;;23.60;54.10;;;;;;5025924;28;20444;-47
2021/08/03 01:02:26;;;;;;;2.63;1.70;;;23.60;54.10;;;;;;5023141;28;20855;-46
2021/08/03 01:04:52;;;;;;;1.87;1.33;;;23.60;54.30;;;;;;5028533;28;20233;-46
2021/08/03 01:07:55;;;;;;;3.43;1.50;;;23.60;54.10;;;;;;5026053;28;20204;-46
2021/08/03 01:10:46;;;;;;;2.17;1.30;;;23.70;54.10;;;;;;5024434;28;20774;-46
2021/08/03 01:13:35;;;;;;;1.30;1.20;;;23.70;54.00;;;;;;5024306;28;20865;-46
2021/08/03 01:16:17;;;;;;;1.80;1.47;;;23.70;53.90;;;;;;5024144;28;20450;-46
2021/08/03 01:18:58;;;;;;;3.07;1.73;;;23.70;53.90;;;;;;5026455;28;21060;-46
2021/08/03 01:22:02;;;;;;;1.83;1.73;;;23.70;53.50;;;;;;5026232;28;20452;-46
2021/08/03 01:24:51;;;;;;;2.67;1.67;;;23.60;54.20;;;;;;5003304;28;20452;-47
2021/08/03 01:27:27;;;;;;;3.00;1.80;;;23.70;54.10;;;;;;5022274;28;20822;-47
2021/08/03 01:29:54;;;;;;;2.80;1.47;;;23.60;54.30;;;;;;5025898;28;20451;-47
2021/08/03 01:32:28;;;;;;;1.50;1.40;;;23.60;54.20;;;;;;5022935;28;20444;-46
2021/08/03 01:34:55;;;;;;;1.37;1.27;;;23.60;54.40;;;;;;5027027;28;20455;-48
2021/08/03 01:37:23;;;;;;;1.70;1.60;;;23.70;54.10;;;;;;5024110;28;20455;-47
2021/08/03 01:39:56;;;;;;;1.63;1.40;;;23.70;54.10;;;;;;5023489;28;20479;-46
2021/08/03 01:42:23;;;;;;;1.73;1.50;;;23.70;53.90;;;;;;5024307;28;20487;-46
2021/08/03 01:44:50;;;;;;;2.20;1.40;;;23.70;53.70;;;;;;5026106;28;20436;-46
2021/08/03 01:47:18;;;;;;;1.97;1.40;;;23.70;54.10;;;;;;5027895;28;20459;-50
2021/08/03 01:49:46;;;;;;;2.60;1.33;;;23.60;54.20;;;;;;5025246;28;20440;-46
2021/08/03 01:52:12;;;;;;;6.60;1.60;;;23.70;53.70;;;;;;5026218;28;20447;-48
2021/08/03 01:54:39;;;;;;;1.57;1.37;;;23.70;53.90;;;;;;5027867;28;20499;-46
2021/08/03 01:57:06;;;;;;;1.83;1.73;;;23.70;54.00;;;;;;5024767;28;20976;-48
2021/08/03 01:59:32;;;;;;;4.20;1.50;;;23.60;54.00;;;;;;5031766;28;20424;-46
2021/08/03 02:01:59;;;;;;;1.70;1.60;;;23.60;54.10;;;;;;5025962;28;20956;-47
2021/08/03 02:04:25;;;;;;;2.60;1.37;;;23.60;54.20;;;;;;5022871;28;20436;-46
2021/08/03 02:06:51;;;;;;;3.40;1.50;;;23.60;54.30;;;;;;5023052;28;20435;-45
2021/08/03 02:09:20;;;;;;;1.70;1.60;;;23.50;54.30;;;;;;5028198;28;20442;-46
2021/08/03 02:11:47;;;;;;;2.00;1.80;;;23.60;54.40;;;;;;5025698;28;20201;-46
2021/08/03 02:14:13;;;;;;;2.03;1.57;;;23.60;53.90;;;;;;5023241;28;20459;-48
2021/08/03 02:16:39;;;;;;;1.40;1.30;;;23.60;54.30;;;;;;5024598;28;20436;-46
2021/08/03 02:19:07;;;;;;;1.87;1.70;;;23.60;54.30;;;;;;5027660;28;20490;-47
2021/08/03 02:21:33;;;;;;;1.33;1.23;;;23.60;54.10;;;;;;5024136;28;20312;-47
2021/08/03 02:23:58;;;;;;;1.70;1.60;;;23.60;54.30;;;;;;5026611;28;20470;-47
2021/08/03 02:26:24;;;;;;;1.60;1.27;;;23.50;54.40;;;;;;5022337;28;20197;-48
2021/08/03 02:28:50;;;;;;;1.50;1.40;;;23.50;54.30;;;;;;5027399;28;20207;-46
2021/08/03 02:31:30;;;;;;;1.57;1.47;;;23.50;53.90;;;;;;5026550;28;20205;-46
2021/08/03 02:34:04;;;;;;;4.10;1.60;;;23.50;54.20;;;;;;5023647;28;20319;-47
2021/08/03 02:36:38;;;;;;;2.00;1.83;;;23.50;54.70;;;;;;5023908;28;20478;-47
2021/08/03 02:39:05;;;;;;;2.67;1.60;;;23.40;54.20;;;;;;5024649;28;20443;-46
2021/08/03 02:41:32;;;;;;;2.70;1.97;;;23.40;54.30;;;;;;5027254;28;20444;-46
2021/08/03 02:43:58;;;;;;;2.30;1.80;;;23.30;54.60;;;;;;5026809;28;20472;-49
2021/08/03 02:46:26;;;;;;;2.20;1.50;;;23.40;54.40;;;;;;5023694;28;20444;-47
2021/08/03 02:49:04;;;;;;;2.97;1.40;;;23.40;54.20;;;;;;5022071;28;20448;-48
2021/08/03 02:51:31;;;;;;;1.90;1.40;;;23.30;54.60;;;;;;5022416;28;21231;-46
2021/08/03 02:54:02;;;;;;;1.60;1.50;;;23.30;54.60;;;;;;5022924;28;20442;-47
2021/08/03 02:56:30;;;;;;;1.87;1.43;;;23.30;55.10;;;;;;5026528;28;20538;-46
2021/08/03 02:59:09;;;;;;;2.07;1.50;;;23.40;54.20;;;;;;5022449;28;20532;-46
2021/08/03 03:01:38;;;;;;;2.40;1.40;;;23.40;54.30;;;;;;5027349;28;20446;-47
2021/08/03 03:04:31;;;;;;;3.67;1.50;;;23.40;54.20;;;;;;5023117;28;20547;-47
2021/08/03 03:07:02;;;;;;;3.50;1.57;;;23.50;53.60;;;;;;5022251;28;20494;-46
2021/08/03 03:09:33;;;;;;;3.87;1.60;;;23.40;54.20;;;;;;5016614;28;20535;-50
2021/08/03 03:11:59;;;;;;;1.90;1.57;;;23.30;53.50;;;;;;5022132;28;20455;-48
2021/08/03 03:14:27;;;;;;;3.20;1.70;;;23.30;54.50;;;;;;5024699;28;20444;-49
2021/08/03 03:16:58;;;;;;;2.40;1.77;;;23.20;54.50;;;;;;5022894;28;20463;-47
2021/08/03 03:19:25;;;;;;;1.43;1.33;;;23.30;54.30;;;;;;5022929;28;20479;-46
2021/08/03 03:21:52;;;;;;;2.13;1.60;;;23.30;54.40;;;;;;5031006;28;20472;-48
2021/08/03 03:24:20;;;;;;;1.60;1.47;;;23.40;54.40;;;;;;5030097;28;20440;-47
2021/08/03 03:26:48;;;;;;;2.30;1.30;;;23.30;54.30;;;;;;5024308;28;20944;-45
2021/08/03 03:29:16;;;;;;;2.57;1.53;;;23.30;54.40;;;;;;5026461;28;20447;-47
2021/08/03 03:31:42;;;;;;;1.40;1.40;;;23.30;54.30;;;;;;5030016;28;20494;-46
2021/08/03 03:34:10;;;;;;;2.00;1.40;;;23.30;54.30;;;;;;5031926;28;20444;-50
2021/08/03 03:36:37;;;;;;;2.27;1.80;;;23.20;54.40;;;;;;5031281;28;20464;-46
2021/08/03 03:39:04;;;;;;;3.00;1.40;;;23.20;54.50;;;;;;5031988;28;20534;-48
2021/08/03 03:41:32;;;;;;;2.07;1.73;;;23.30;54.40;;;;;;5029681;28;20448;-49
2021/08/03 03:43:58;;;;;;;1.63;1.53;;;23.30;54.30;;;;;;5030760;28;20518;-46
2021/08/03 03:46:30;;;;;;;4.87;1.60;;;23.30;54.40;;;;;;5027679;28;20455;-47
2021/08/03 03:49:05;;;;;;;2.10;1.60;;;23.20;54.30;;;;;;5029516;28;20931;-46
2021/08/03 03:51:34;;;;;;;1.70;1.60;;;23.50;53.50;;;;;;5028897;28;20443;-46
2021/08/03 03:54:03;;;;;;;1.90;1.80;;;23.60;53.50;;;;;;5025645;28;20998;-45
2021/08/03 03:56:39;;;;;;;2.67;1.90;;;23.50;53.50;;;;;;5026798;28;20489;-48
2021/08/03 03:59:06;;;;;;;2.40;1.50;;;23.50;53.70;;;;;;5027346;28;20493;-48
2021/08/03 04:01:32;;;;;;;2.10;1.60;;;23.40;53.90;;;;;;5026687;28;20938;-47
2021/08/03 04:04:00;;;;;;;1.70;1.60;;;23.30;54.10;;;;;;5027761;28;20990;-46
2021/08/03 04:06:26;;;;;;;4.03;1.70;;;23.30;54.00;;;;;;5023425;28;20448;-46
2021/08/03 04:08:52;;;;;;;2.33;1.53;;;23.10;54.20;;;;;;5023686;28;20436;-47
2021/08/03 04:11:18;;;;;;;1.50;1.40;;;23.10;54.30;;;;;;5026864;28;20439;-47
2021/08/03 04:13:44;;;;;;;2.00;1.73;;;23.10;54.60;;;;;;5027159;28;20197;-45
2021/08/03 04:16:10;;;;;;;3.83;1.50;;;23.10;54.50;;;;;;5025449;28;20208;-50
2021/08/03 04:18:36;;;;;;;1.60;1.50;;;23.10;54.60;;;;;;5027747;28;21052;-46
2021/08/03 04:21:02;;;;;;;1.63;1.53;;;23.10;54.70;;;;;;5029127;28;20448;-45
2021/08/03 04:23:28;;;;;;;3.93;1.80;;;23.10;54.60;;;;;;5029835;28;20232;-46
2021/08/03 04:25:54;;;;;;;4.73;1.97;;;23.10;54.00;;;;;;5027387;28;20435;-46
2021/08/03 04:28:19;;;;;;;4.20;1.50;;;23.00;54.40;;;;;;5029495;28;20205;-48
2021/08/03 04:30:45;;;;;;;4.33;1.43;;;23.00;54.50;;;;;;5029707;28;20232;-47
2021/08/03 04:33:11;;;;;;;3.57;1.90;;;22.90;55.00;;;;;;5030767;28;20196;-47
2021/08/03 04:35:36;;;;;;;2.10;1.90;;;22.90;54.80;;;;;;5024930;28;20208;-48
2021/08/03 04:38:02;;;;;;;1.63;1.53;;;22.80;55.10;;;;;;5029477;28;20197;-47
2021/08/03 04:40:28;;;;;;;1.90;1.80;;;22.80;55.10;;;;;;5026995;28;20275;-46
2021/08/03 04:42:53;;;;;;;3.80;1.80;;;22.70;55.50;;;;;;5029179;28;20229;-51
2021/08/03 04:45:19;;;;;;;1.80;1.50;;;22.70;55.40;;;;;;5027791;28;20194;-48
2021/08/03 04:47:48;;;;;;;1.70;1.60;;;22.70;55.70;;;;;;5022502;28;20207;-45
2021/08/03 04:50:20;;;;;;;2.37;1.60;;;22.60;55.90;;;;;;5028914;28;20443;-47
2021/08/03 04:52:45;;;;;;;1.67;1.57;;;22.70;55.80;;;;;;5029915;28;20440;-48
2021/08/03 04:55:12;;;;;;;1.60;1.50;;;22.80;55.40;;;;;;5029635;28;20458;-47
2021/08/03 04:57:38;;;;;;;2.23;1.50;;;22.90;55.30;;;;;;5026597;28;20201;-46
2021/08/03 05:00:09;;;;;;;1.97;1.47;;;22.80;55.20;;;;;;5027528;28;20454;-50
2021/08/03 05:02:35;;;;;;;1.60;1.50;;;22.90;55.20;;;;;;5029597;28;20593;-45
2021/08/03 05:05:02;;;;;;;2.53;1.70;;;22.80;54.80;;;;;;5028455;28;20480;-49
2021/08/03 05:07:28;;;;;;;2.50;1.53;;;22.80;55.50;;;;;;5028631;28;20201;-46
2021/08/03 05:09:54;;;;;;;3.07;1.67;;;22.70;55.60;;;;;;5028561;28;20443;-45
2021/08/03 05:12:19;;;;;;;5.23;1.90;;;22.80;55.30;;;;;;5029166;28;20212;-47
2021/08/03 05:14:45;;;;;;;2.37;1.87;;;22.90;54.00;;;;;;5029204;28;20197;-47
2021/08/03 05:17:10;;;;;;;1.60;1.50;;;22.90;53.60;;;;;;5022585;28;20186;-48
2021/08/03 05:19:36;;;;;;;1.80;1.70;;;22.70;55.60;;;;;;5030680;28;20185;-45
2021/08/03 05:22:02;;;;;;;2.20;2.07;;;22.70;55.40;;;;;;5022290;28;20687;-48
2021/08/03 05:24:27;;;;;;;4.60;2.00;;;22.80;55.00;;;;;;5022828;28;22096;-46
2021/08/03 05:26:56;;;;;;;1.77;1.67;;;22.80;54.40;;;;;;5014158;28;20239;-49
2021/08/03 05:29:22;;;;;;;3.87;1.90;;;22.80;54.10;;;;;;5025533;28;20185;-46
2021/08/03 05:31:47;;;;;;;3.73;2.10;;;22.60;55.10;;;;;;5026885;28;20446;-46
2021/08/03 05:34:13;;;;;;;2.00;1.90;;;22.40;54.50;;;;;;5026466;28;20239;-46
2021/08/03 05:36:42;;;;;;;1.80;1.70;;;22.40;54.80;;;;;;5029741;28;20224;-48
2021/08/03 05:39:09;;;;;;;2.27;2.07;;;22.30;55.10;;;;;;5023994;28;20193;-47
2021/08/03 05:41:35;;;;;;;1.63;1.53;;;22.40;55.10;;;;;;5024799;28;20444;-50
2021/08/03 05:44:04;;;;;;;2.07;1.73;;;22.50;54.80;;;;;;5028337;28;20450;-51
2021/08/03 05:46:31;;;;;;;2.40;1.60;;;22.50;54.60;;;;;;5024869;28;20982;-46
2021/08/03 05:48:56;;;;;;;2.30;1.83;;;22.60;54.50;;;;;;5028573;28;20931;-47
2021/08/03 05:51:22;;;;;;;2.13;1.80;;;22.50;54.40;;;;;;5030264;28;20485;-46
2021/08/03 05:53:47;;;;;;;2.80;1.90;;;22.50;54.60;;;;;;5029339;28;20201;-46
2021/08/03 05:56:13;;;;;;;2.37;2.10;;;22.50;55.30;;;;;;5027999;28;20198;-46
2021/08/03 05:58:39;;;;;;;1.90;1.80;;;22.50;54.70;;;;;;5029656;28;20200;-47
2021/08/03 06:01:04;;;;;;;2.03;1.93;;;22.60;54.70;;;;;;5028976;28;20212;-46
2021/08/03 06:03:30;;;;;;;2.90;1.90;;;22.50;54.80;;;;;;5040110;28;20680;-51
2021/08/03 06:05:55;;;;;;;2.57;2.23;;;22.30;55.10;;;;;;5035300;28;20197;-46
2021/08/03 06:08:28;;;;;;;2.20;2.00;;;22.30;55.00;;;;;;5029108;28;20197;-46
2021/08/03 06:10:53;;;;;;;2.30;2.10;;;22.30;55.30;;;;;;5030015;28;20852;-46
2021/08/03 06:13:23;;;;;;;4.07;1.97;;;22.30;55.40;;;;;;5026849;28;20444;-46
2021/08/03 06:15:50;;;;;;;1.80;1.70;;;22.30;55.50;;;;;;5029237;28;20223;-46
2021/08/03 06:18:29;;;;;;;5.03;2.07;;;22.30;55.30;;;;;;5028093;28;20479;-46
2021/08/03 06:20:56;;;;;;;2.77;1.90;;;22.30;55.30;;;;;;5025704;28;20452;-49
2021/08/03 06:23:24;;;;;;;1.93;1.73;;;22.40;55.30;;;;;;5026276;28;20484;-50
2021/08/03 06:25:52;;;;;;;4.40;1.70;;;22.30;55.00;;;;;;5023318;28;20927;-46
2021/08/03 06:28:20;;;;;;;2.50;2.27;;;22.20;55.30;;;;;;5030498;28;20782;-46
2021/08/03 06:30:48;;;;;;;2.33;1.80;;;21.90;55.90;;;;;;5029595;28;20835;-48
2021/08/03 06:33:16;;;;;;;2.80;2.37;;;22.00;56.30;;;;;;5029908;28;20432;-46
2021/08/03 06:35:42;;;;;;;3.60;1.63;;;22.20;56.10;;;;;;5030950;28;20501;-46
2021/08/03 06:38:07;;;;;;;3.13;1.50;;;22.40;55.70;;;;;;5030230;28;21303;-47
2021/08/03 06:40:34;;;;;;;2.57;2.00;;;22.40;55.60;;;;;;5027931;28;20204;-47
2021/08/03 06:43:10;;;;;;;4.40;1.93;;;22.50;55.90;;;;;;5028670;28;20224;-45
2021/08/03 06:45:37;;;;;;;2.00;1.80;;;22.50;55.10;;;;;;5024943;28;20942;-46
2021/08/03 06:48:15;;;;;;;3.00;2.00;;;22.70;55.20;;;;;;5030188;28;20431;-47
2021/08/03 06:50:45;;;;;;;2.10;1.70;;;22.70;54.80;;;;;;5028657;28;20432;-48
2021/08/03 06:53:12;;;;;;;4.63;1.80;;;22.80;54.80;;;;;;5030272;28;20469;-48
2021/08/03 06:55:45;;;;;;;1.70;1.60;;;22.70;54.30;;;;;;5032009;28;20443;-48
2021/08/03 06:58:26;;;;;;;1.87;1.77;;;22.50;55.20;;;;;;5033560;28;20456;-46
2021/08/03 07:00:53;;;;;;;6.90;2.10;;;22.00;55.20;;;;;;5032211;28;20802;-47
2021/08/03 07:03:24;;;;;;;1.83;1.63;;;21.60;57.00;;;;;;5033514;28;20637;-45
2021/08/03 07:05:54;;;;;;;2.10;1.80;;;21.60;57.20;;;;;;5033971;28;20440;-46
2021/08/03 07:08:20;;;;;;;3.87;1.50;;;21.80;57.30;;;;;;5023814;28;20801;-45
2021/08/03 07:10:50;;;;;;;2.00;1.90;;;21.20;57.40;;;;;;5017907;28;20443;-48
2021/08/03 07:13:17;;;;;;;5.57;1.67;;;21.40;58.10;;;;;;5027154;28;20444;-50
2021/08/03 07:15:45;;;;;;;1.67;1.57;;;21.90;57.00;;;;;;5027608;28;20788;-48
2021/08/03 07:18:11;;;;;;;3.77;1.60;;;21.60;56.70;;;;;;5033614;28;20479;-49
2021/08/03 07:20:41;;;;;;;2.17;1.97;;;21.80;56.70;;;;;;5031215;28;20661;-48
2021/08/03 07:23:11;;;;;;;1.80;1.37;;;21.90;55.70;;;;;;5028692;28;20978;-46
2021/08/03 07:25:37;;;;;;;1.97;1.50;;;22.10;55.60;;;;;;5031792;28;20447;-50
2021/08/03 07:28:03;;;;;;;2.83;1.63;;;22.20;55.60;;;;;;5030477;28;20443;-48
2021/08/03 07:30:28;;;;;;;3.40;2.20;;;22.30;55.40;;;;;;5030911;28;20197;-48
2021/08/03 07:32:54;;;;;;;1.43;1.33;;;22.10;56.10;;;;;;5032553;28;20193;-46
2021/08/03 07:35:20;;;;;;;4.30;2.10;;;22.40;55.90;;;;;;5032127;28;20200;-48
2021/08/03 07:37:45;;;;;;;3.40;2.10;;;22.60;55.10;;;;;;5032835;28;20259;-47
2021/08/03 07:40:11;;;;;;;3.10;1.80;;;22.70;55.10;;;;;;5033389;28;20676;-47
2021/08/03 07:42:37;;;;;;;2.10;1.67;;;23.00;54.40;;;;;;5023472;28;20239;-46
2021/08/03 07:45:04;;;;;;;2.00;1.47;;;22.80;54.00;;;;;;5032082;28;21067;-48
2021/08/03 07:47:32;;;;;;;2.50;1.70;;;22.60;55.70;;;;;;5031262;28;20220;-51
2021/08/03 07:49:58;;;;;;;1.73;1.63;;;22.80;55.30;;;;;;5029218;28;20433;-49
2021/08/03 07:52:23;;;;;;;1.90;1.37;;;23.10;54.10;;;;;;5026116;28;20461;-48
2021/08/03 07:54:49;;;;;;;3.77;1.80;;;23.10;53.90;;;;;;5032605;28;20664;-47
2021/08/03 07:57:15;;;;;;;1.90;1.63;;;23.30;53.90;;;;;;5030542;28;20204;-51
2021/08/03 07:59:40;;;;;;;2.70;2.10;;;23.50;54.10;;;;;;5033976;28;20189;-51
2021/08/03 08:02:06;;;;;;;1.80;1.57;;;23.60;52.00;;;;;;5030451;28;20275;-50
2021/08/03 08:04:31;;;;;;;1.50;1.40;;;23.50;51.70;;;;;;5021559;28;20189;-47
2021/08/03 08:06:57;;;;;;;2.00;1.80;;;23.60;51.40;;;;;;5028600;28;20185;-49
2021/08/03 08:09:22;;;;;;;3.47;1.90;;;23.60;50.70;;;;;;5027493;28;20668;-46
2021/08/03 08:11:48;;;;;;;3.30;1.67;;;23.70;50.70;;;;;;5028295;28;20645;-46
2021/08/03 08:14:14;;;;;;;1.50;1.40;;;23.80;50.40;;;;;;5025654;28;20201;-49
2021/08/03 08:16:39;;;;;;;1.40;1.27;;;23.70;50.30;;;;;;5023097;28;20231;-47
2021/08/03 08:19:05;;;;;;;1.40;1.30;;;23.80;50.90;;;;;;5035339;28;20248;-47
2021/08/03 08:21:33;;;;;;;2.10;1.90;;;23.80;50.40;;;;;;5026147;28;20192;-47
2021/08/03 08:24:03;;;;;;;3.70;1.63;;;23.90;50.90;;;;;;5031366;28;20228;-48
2021/08/03 08:26:29;;;;;;;2.10;1.50;;;24.10;50.70;;;;;;5031041;28;20448;-46
2021/08/03 08:28:54;;;;;;;2.87;1.73;;;24.20;50.50;;;;;;5031566;28;20471;-50
2021/08/03 08:31:20;;;;;;;4.40;1.73;;;24.30;50.50;;;;;;5028681;28;20467;-51
2021/08/03 08:33:46;;;;;;;1.67;1.40;;;24.40;50.40;;;;;;5030965;28;20197;-47
2021/08/03 08:36:11;;;;;;;1.77;1.67;;;24.50;50.20;;;;;;5023570;28;20185;-46
2021/08/03 08:38:37;;;;;;;3.53;1.50;;;24.60;50.20;;;;;;5027873;28;20288;-49
2021/08/03 08:41:03;;;;;;;3.90;1.37;;;24.60;49.90;;;;;;5029256;28;20198;-48
2021/08/03 08:43:29;;;;;;;3.13;1.63;;;24.60;49.50;;;;;;5031213;28;20229;-52
2021/08/03 08:45:55;;;;;;;2.27;1.70;;;24.70;49.80;;;;;;5027689;28;20424;-48
2021/08/03 08:48:22;;;;;;;2.17;1.80;;;24.80;49.70;;;;;;5028328;28;20432;-50
2021/08/03 08:50:53;;;;;;;2.20;1.40;;;24.80;49.80;;;;;;5029988;28;20276;-47
2021/08/03 08:53:20;;;;;;;4.67;1.73;;;25.00;49.80;;;;;;5031848;28;20472;-52
2021/08/03 08:55:45;;;;;;;1.87;1.67;;;24.90;49.90;;;;;;5030281;28;20843;-47
2021/08/03 08:58:11;;;;;;;1.77;1.67;;;24.90;50.00;;;;;;5030659;28;20428;-48
2021/08/03 09:00:36;;;;;;;1.80;1.70;;;25.00;50.20;;;;;;5029796;28;20951;-48
2021/08/03 09:03:02;;;;;;;1.83;1.67;;;25.00;49.90;;;;;;5030788;28;20221;-46
2021/08/03 09:05:37;;;;;;;1.53;1.43;;;25.00;49.50;;;;;;5033295;28;20697;-50
2021/08/03 09:08:04;;;;;;;2.50;1.83;;;25.00;49.40;;;;;;5029908;28;20211;-50
2021/08/03 09:10:33;;;;;;;1.83;1.57;;;25.10;49.70;;;;;;5029080;28;20434;-51
2021/08/03 09:13:08;;;;;;;1.50;1.40;;;25.10;49.60;;;;;;5030221;28;20452;-48
2021/08/03 09:15:37;;;;;;;3.07;1.73;;;25.10;49.40;;;;;;5028369;28;20470;-50
2021/08/03 09:18:45;;;;;;;2.83;1.63;;;25.20;49.40;;;;;;5026476;28;21030;-48
2021/08/03 09:21:24;;;;;;;3.47;1.60;;;25.30;49.70;;;;;;5018193;28;20494;-46
2021/08/03 09:23:55;;;;;;;1.90;1.80;;;25.40;49.80;;;;;;5033299;28;20487;-46
2021/08/03 09:26:38;;;;;;;4.97;1.90;;;25.40;49.80;;;;;;5021752;28;20452;-47
2021/08/03 09:29:08;;;;;;;5.33;2.20;;;25.40;49.80;;;;;;5024599;28;20467;-49
2021/08/03 09:31:36;;;;;;;2.27;1.80;;;25.40;49.70;;;;;;5026724;28;20432;-50
2021/08/03 09:34:13;;;;;;;4.50;1.90;;;25.60;49.60;;;;;;5029598;28;20806;-49
2021/08/03 09:36:49;;;;;;;3.30;1.80;;;25.70;49.80;;;;;;5030937;28;20837;-51
2021/08/03 09:39:44;;;;;;;4.90;1.80;;;25.80;49.40;;;;;;5028782;28;20451;-48
2021/08/03 09:42:17;;;;;;;2.43;1.60;;;25.70;49.10;;;;;;5029818;28;20955;-48
2021/08/03 09:44:58;;;;;;;2.20;1.73;;;25.60;49.60;;;;;;5032234;28;20535;-51
2021/08/03 09:47:25;;;;;;;3.20;2.03;;;25.60;49.80;;;;;;5028934;28;20858;-50
2021/08/03 09:49:53;;;;;;;2.83;1.87;;;25.50;50.40;;;;;;5031113;28;20442;-50
2021/08/03 09:52:23;;;;;;;1.90;1.80;;;24.70;51.90;;;;;;5029455;28;20495;-51
2021/08/03 09:54:49;;;;;;;4.10;2.13;;;23.60;54.40;;;;;;5029721;28;20468;-52
2021/08/03 09:57:24;;;;;;;3.20;2.30;;;22.70;59.80;;;;;;5025646;28;20490;-51
2021/08/03 09:59:51;;;;;;;3.93;2.13;;;22.30;62.50;;;;;;5028434;28;20447;-50
2021/08/03 10:02:22;;;;;;;3.70;2.50;;;22.20;63.30;;;;;;5028690;28;20526;-51
2021/08/03 10:04:48;;;;;;;1.80;1.53;;;22.30;63.70;;;;;;5029643;28;20529;-48
2021/08/03 10:07:15;;;;;;;2.33;1.77;;;22.40;62.40;;;;;;5028739;28;20432;-53
2021/08/03 10:09:42;;;;;;;1.60;1.50;;;22.60;61.80;;;;;;5023115;28;20450;-49
2021/08/03 10:12:09;;;;;;;1.60;1.40;;;22.70;62.40;;;;;;5028849;28;20428;-51
2021/08/03 10:14:35;;;;;;;3.67;1.60;;;22.70;62.40;;;;;;5029685;28;20440;-48
2021/08/03 10:17:01;;;;;;;2.53;1.70;;;22.80;62.40;;;;;;5029599;28;20436;-51
2021/08/03 10:19:29;;;;;;;2.93;1.40;;;22.90;62.30;;;;;;5040839;28;20463;-52
2021/08/03 10:22:27;;;;;;;2.10;1.70;;;23.00;61.70;;;;;;5030101;28;20220;-50
2021/08/03 10:25:16;;;;;;;2.83;1.87;;;22.80;62.10;;;;;;5020052;28;20521;-51
2021/08/03 10:27:48;;;;;;;1.47;1.37;;;22.80;61.80;;;;;;5022719;28;20498;-50
2021/08/03 10:30:28;;;;;;;2.53;1.80;;;22.90;61.50;;;;;;5031777;28;20439;-48
2021/08/03 10:33:10;;;;;;;3.50;1.47;;;23.00;62.10;;;;;;5033495;28;20451;-48
2021/08/03 10:35:54;;;;;;;2.50;2.00;;;23.00;61.80;;;;;;5031051;28;20454;-46
2021/08/03 10:38:28;;;;;;;2.37;2.17;;;23.00;62.70;;;;;;5033900;28;20539;-47
2021/08/03 10:40:57;;;;;;;2.20;2.00;;;23.10;62.80;;;;;;5031493;28;20510;-45
2021/08/03 10:43:36;;;;;;;2.10;1.90;;;23.20;62.80;;;;;;5033339;28;20882;-48
2021/08/03 10:46:07;;;;;;;2.83;1.70;;;23.30;62.80;;;;;;5033356;28;20490;-47
2021/08/03 10:48:39;;;;;;;2.20;2.00;;;23.40;63.30;;;;;;5032933;28;20423;-46
2021/08/03 10:51:14;;;;;;;2.27;2.07;;;23.40;62.90;;;;;;5036323;28;20438;-47
2021/08/03 10:54:13;;;;;;;2.80;1.40;;;23.50;62.30;;;;;;5033164;28;20444;-48
2021/08/03 10:56:59;;;;;;;1.70;1.40;;;23.40;60.50;;;;;;5032589;28;20554;-48
2021/08/03 10:59:32;;;;;;;1.40;1.30;;;23.30;60.20;;;;;;5034203;28;20431;-46
2021/08/03 11:01:59;;;;;;;1.50;1.40;;;23.30;60.80;;;;;;5032032;28;20533;-46
2021/08/03 11:04:49;;;;;;;1.80;1.50;;;23.20;59.90;;;;;;5033672;28;20444;-48
2021/08/03 11:07:31;;;;;;;2.93;1.70;;;23.30;61.30;;;;;;5031498;28;20490;-46
2021/08/03 11:09:56;;;;;;;1.57;1.47;;;23.40;60.60;;;;;;5018555;28;20448;-47
2021/08/03 11:12:44;;;;;;;1.93;1.30;;;23.60;59.80;;;;;;5031087;28;20778;-46
2021/08/03 11:15:22;;;;;;;5.00;2.00;;;23.70;59.80;;;;;;5033842;28;20195;-46
2021/08/03 11:17:58;;;;;;;1.70;1.60;;;23.70;59.10;;;;;;5033448;28;20559;-46
2021/08/03 11:20:36;;;;;;;2.00;1.80;;;23.60;58.90;;;;;;5025444;28;20446;-47
2021/08/03 11:23:01;;;;;;;1.73;1.50;;;23.90;61.20;;;;;;5032189;28;21047;-46
2021/08/03 11:25:28;;;;;;;2.90;1.80;;;24.00;62.00;;;;;;5036677;28;20435;-46
2021/08/03 11:27:54;;;;;;;1.73;1.53;;;23.90;61.80;;;;;;5037137;28;20182;-46
2021/08/03 11:30:20;;;;;;;1.50;1.40;;;24.00;60.60;;;;;;5033424;28;20945;-46
2021/08/03 11:32:50;;;;;;;1.83;1.43;;;24.00;58.80;;;;;;5032696;28;20223;-47
2021/08/03 11:35:29;;;;;;;2.50;1.63;;;23.90;60.20;;;;;;5032619;28;20866;-47
2021/08/03 11:37:55;;;;;;;1.90;1.47;;;24.00;59.50;;;;;;5030051;28;20450;-47
2021/08/03 11:40:21;;;;;;;2.00;1.80;;;23.70;57.80;;;;;;5031913;28;20436;-46
2021/08/03 11:42:47;;;;;;;3.47;1.90;;;23.70;58.50;;;;;;5031924;28;20225;-46
2021/08/03 11:45:18;;;;;;;2.93;1.83;;;23.80;58.90;;;;;;5032231;28;20511;-46
2021/08/03 11:48:02;;;;;;;1.80;1.43;;;23.70;59.30;;;;;;5030707;28;20478;-46
2021/08/03 11:50:32;;;;;;;1.60;1.30;;;23.80;58.30;;;;;;5035653;28;20857;-47
2021/08/03 11:53:30;;;;;;;1.43;1.37;;;23.50;58.50;;;;;;5027312;28;20947;-47
2021/08/03 11:55:57;;;;;;;2.03;1.73;;;23.60;59.20;;;;;;5016877;28;20484;-47
2021/08/03 11:58:30;;;;;;;2.10;1.60;;;23.80;59.30;;;;;;5034153;28;20444;-44
2021/08/03 12:01:00;;;;;;;2.40;1.23;;;23.50;59.10;;;;;;5031705;28;20439;-44
2021/08/03 12:03:34;;;;;;;1.63;1.47;;;23.20;58.30;;;;;;5030804;28;20488;-46
2021/08/03 12:06:04;;;;;;;2.30;1.60;;;23.30;59.60;;;;;;5029115;28;20855;-45
2021/08/03 12:08:39;;;;;;;1.67;1.47;;;23.60;59.50;;;;;;5032374;28;20490;-47
2021/08/03 12:11:05;;;;;;;1.70;1.60;;;24.00;58.60;;;;;;5023888;28;20451;-44
2021/08/03 12:13:38;;;;;;;1.40;1.30;;;24.20;57.70;;;;;;5027268;28;20440;-45
2021/08/03 12:16:05;;;;;;;1.97;1.70;;;24.30;58.90;;;;;;5033586;28;20447;-45
2021/08/03 12:18:39;;;;;;;3.20;1.80;;;24.20;57.60;;;;;;5030304;28;20463;-49
2021/08/03 12:21:06;;;;;;;1.97;1.87;;;24.50;58.50;;;;;;5028993;28;20479;-45
2021/08/03 12:23:33;;;;;;;2.03;1.83;;;24.30;58.10;;;;;;5028473;28;20586;-47
2021/08/03 12:26:08;;;;;;;1.50;1.40;;;24.30;58.60;;;;;;5031159;28;20463;-44
2021/08/03 12:28:39;;;;;;;1.97;1.70;;;24.50;58.10;;;;;;5032628;28;20443;-46
2021/08/03 12:31:17;;;;;;;1.83;1.73;;;24.50;57.80;;;;;;5030968;28;20485;-46
2021/08/03 12:33:43;;;;;;;3.20;1.90;;;24.60;58.00;;;;;;5030968;28;20440;-44
2021/08/03 12:36:15;;;;;;;1.70;1.60;;;24.70;58.70;;;;;;5029220;28;20483;-46
2021/08/03 12:38:44;;;;;;;4.40;1.63;;;24.60;57.90;;;;;;5032387;28;20208;-45
2021/08/03 12:41:20;;;;;;;2.80;2.33;;;24.60;57.90;;;;;;5033373;28;20463;-46
2021/08/03 12:43:46;;;;;;;1.50;1.40;;;24.30;57.90;;;;;;5030799;28;20852;-45
2021/08/03 12:46:13;;;;;;;2.50;1.50;;;24.20;58.10;;;;;;5031952;28;20443;-45
2021/08/03 12:48:51;;;;;;;2.10;1.60;;;24.40;57.90;;;;;;5032007;28;20973;-47
2021/08/03 12:51:28;;;;;;;3.37;2.00;;;24.70;56.80;;;;;;5031477;28;20471;-45
2021/08/03 12:54:10;;;;;;;3.70;1.60;;;24.80;57.40;;;;;;5031833;28;20481;-45
2021/08/03 12:56:46;;;;;;;1.90;1.70;;;24.80;56.10;;;;;;5031587;28;20512;-45
2021/08/03 12:59:41;;;;;;;6.27;2.20;;;24.60;57.00;;;;;;5025213;28;20523;-46
2021/08/03 13:02:11;;;;;;;4.80;1.70;;;24.90;57.20;;;;;;5027897;28;20468;-45